Time;durP1;ratioP1;P1;durP2;ratioP2;P2;SDS_P1;SDS_P2;PMS_P1;PMS_P2;Temp;Humidity;BMP_temperature;BMP_pressure;BME280_temperature;BME280_humidity;BME280_pressure;Samples;Min_cycle;Max_cycle;Signal;HPM_P1;HPM_P2
2022/01/03 00:01:10;;;;;;;7.00;4.63;;;10.40;1.00;;;;;;5050326;28;20489;-79
2022/01/03 00:03:37;;;;;;;7.90;4.97;;;10.40;1.00;;;;;;5050045;28;20460;-79
2022/01/03 00:06:04;;;;;;;5.30;4.30;;;10.40;1.00;;;;;;5057290;28;20499;-79
2022/01/03 00:08:31;;;;;;;5.47;4.97;;;10.40;1.00;;;;;;5050216;28;20480;-78
2022/01/03 00:10:59;;;;;;;6.73;5.27;;;10.30;1.00;;;;;;5057203;28;20523;-80
2022/01/03 00:13:27;;;;;;;8.00;6.03;;;10.30;1.00;;;;;;5055440;28;20450;-80
2022/01/03 00:15:55;;;;;;;7.93;4.80;;;10.40;1.00;;;;;;5065770;28;20509;-79
2022/01/03 00:18:23;;;;;;;7.60;5.00;;;10.40;1.00;;;;;;5065670;28;20466;-80
2022/01/03 00:20:57;;;;;;;5.70;5.10;;;10.50;1.00;;;;;;5065826;28;20642;-79
2022/01/03 00:23:26;;;;;;;6.43;4.80;;;10.50;1.00;;;;;;5064985;28;20416;-80
2022/01/03 00:25:58;;;;;;;7.27;4.70;;;10.50;1.00;;;;;;5056267;28;20460;-79
2022/01/03 00:28:33;;;;;;;5.40;4.30;;;10.50;1.00;;;;;;5055787;28;20432;-79
2022/01/03 00:31:00;;;;;;;5.70;4.40;;;10.50;1.00;;;;;;5052972;28;20458;-79
2022/01/03 00:33:28;;;;;;;5.43;4.43;;;10.50;1.00;;;;;;5051946;28;20468;-79
2022/01/03 00:35:59;;;;;;;5.37;4.63;;;10.50;1.00;;;;;;5055652;28;20468;-79
2022/01/03 00:38:27;;;;;;;5.70;3.97;;;10.50;1.00;;;;;;5054013;28;20962;-79
2022/01/03 00:40:54;;;;;;;6.30;5.10;;;10.50;1.00;;;;;;5062485;28;21213;-81
2022/01/03 00:43:21;;;;;;;5.67;3.93;;;10.60;1.00;;;;;;5052189;28;21056;-80
2022/01/03 00:45:53;;;;;;;4.03;3.60;;;10.50;1.00;;;;;;5049071;28;20460;-81
2022/01/03 00:48:20;;;;;;;4.60;3.87;;;10.50;1.00;;;;;;5055470;28;20511;-79
2022/01/03 00:50:47;;;;;;;6.00;4.43;;;10.50;1.00;;;;;;5056705;28;21199;-80
2022/01/03 00:53:14;;;;;;;6.53;4.10;;;10.40;1.00;;;;;;5052571;28;20465;-80
2022/01/03 00:55:59;;;;;;;5.37;4.20;;;10.40;1.00;;;;;;5051391;28;20544;-79
2022/01/03 00:58:29;;;;;;;4.97;4.23;;;10.30;1.00;;;;;;5052135;28;20445;-79
2022/01/03 01:00:58;;;;;;;4.43;3.87;;;10.20;1.00;;;;;;5053115;28;20554;-78
2022/01/03 01:03:33;;;;;;;5.87;3.83;;;10.20;1.00;;;;;;5054329;28;21090;-78
2022/01/03 01:06:03;;;;;;;6.80;4.60;;;10.20;1.00;;;;;;5057003;28;20474;-78
2022/01/03 01:08:30;;;;;;;4.20;3.38;;;10.20;1.00;;;;;;5039414;28;20509;-77
2022/01/03 01:10:59;;;;;;;4.97;3.83;;;10.10;1.00;;;;;;5050958;28;20408;-78
2022/01/03 01:13:26;;;;;;;5.93;3.80;;;10.00;1.00;;;;;;5073191;28;20566;-78
2022/01/03 01:15:53;;;;;;;6.07;3.77;;;9.90;1.00;;;;;;5073747;28;20430;-77
2022/01/03 01:18:24;;;;;;;5.60;4.50;;;9.90;1.00;;;;;;5057553;28;20484;-77
2022/01/03 01:20:51;;;;;;;5.40;3.90;;;9.70;1.00;;;;;;5053935;28;20612;-78
2022/01/03 01:23:18;;;;;;;4.80;3.83;;;9.70;1.00;;;;;;5054183;28;20547;-78
2022/01/03 01:28:29;;;;;;;5.45;3.65;;;9.60;1.00;;;;;;5051306;28;20479;-78
2022/01/03 01:31:00;;;;;;;4.57;4.13;;;9.50;1.00;;;;;;5052259;28;20225;-79
2022/01/03 01:33:35;;;;;;;5.50;3.45;;;9.50;1.00;;;;;;5054249;28;20474;-77
2022/01/03 01:36:05;;;;;;;9.82;4.88;;;9.50;1.00;;;;;;5055300;28;20248;-79
2022/01/03 01:38:34;;;;;;;4.70;3.45;;;9.50;1.00;;;;;;5055384;28;20704;-79
2022/01/03 01:41:03;;;;;;;6.22;3.60;;;9.50;1.00;;;;;;5056097;28;21131;-79
2022/01/03 01:43:35;;;;;;;4.63;3.85;;;9.40;1.00;;;;;;5053589;28;20236;-79
2022/01/03 01:46:08;;;;;;;4.95;3.85;;;9.40;1.00;;;;;;5052881;28;21182;-78
2022/01/03 01:48:38;;;;;;;5.45;4.20;;;9.40;1.00;;;;;;5054123;28;20723;-79
2022/01/03 01:51:07;;;;;;;6.10;3.65;;;9.50;1.00;;;;;;5051015;28;20238;-79
2022/01/03 01:53:41;;;;;;;4.90;3.30;;;9.40;1.00;;;;;;5053823;28;20319;-80
2022/01/03 01:56:15;;;;;;;6.35;3.58;;;9.40;1.00;;;;;;5053706;28;21116;-79
2022/01/03 01:58:59;;;;;;;6.50;3.97;;;9.30;1.00;;;;;;5058620;28;20240;-79
2022/01/03 02:01:43;;;;;;;5.82;3.78;;;9.30;1.00;;;;;;5056849;28;22250;-79
2022/01/03 02:04:20;;;;;;;5.17;3.73;;;9.30;1.00;;;;;;5050909;28;20299;-79
2022/01/03 02:06:48;;;;;;;4.97;3.40;;;9.30;1.00;;;;;;5057483;28;20434;-80
2022/01/03 02:09:20;;;;;;;5.70;3.70;;;9.30;1.00;;;;;;5055864;28;20295;-80
2022/01/03 02:11:50;;;;;;;3.67;3.30;;;9.30;1.00;;;;;;5072775;28;20226;-78
2022/01/03 02:14:20;;;;;;;6.45;3.20;;;9.30;1.00;;;;;;5089876;28;20455;-78
2022/01/03 02:16:47;;;;;;;4.78;2.75;;;9.30;1.00;;;;;;5082945;28;20238;-80
2022/01/03 02:19:16;;;;;;;4.25;2.70;;;9.30;1.00;;;;;;5084118;28;20234;-82
2022/01/03 02:21:46;;;;;;;3.65;2.40;;;9.20;1.00;;;;;;5085466;28;20231;-79
2022/01/03 02:24:12;;;;;;;3.47;2.42;;;9.20;1.00;;;;;;5063909;28;20231;-80
2022/01/03 02:26:39;;;;;;;3.20;2.38;;;9.20;1.00;;;;;;5061227;28;20361;-80
2022/01/03 02:29:07;;;;;;;3.13;2.25;;;9.20;1.00;;;;;;5057274;28;20271;-79
2022/01/03 02:31:34;;;;;;;3.88;2.05;;;9.20;1.00;;;;;;5058214;28;20265;-77
2022/01/03 02:34:01;;;;;;;4.30;2.53;;;9.10;1.00;;;;;;5052806;28;20422;-79
2022/01/03 02:36:31;;;;;;;2.80;2.08;;;9.10;1.00;;;;;;5055713;28;20457;-79
2022/01/03 02:38:59;;;;;;;3.40;2.15;;;9.10;1.00;;;;;;5060357;28;20332;-79
2022/01/03 02:41:26;;;;;;;4.60;2.45;;;9.10;1.00;;;;;;5055833;28;20223;-79
2022/01/03 02:43:53;;;;;;;6.73;2.40;;;9.10;1.00;;;;;;5055733;28;20236;-80
2022/01/03 02:46:20;;;;;;;2.65;1.83;;;9.10;1.00;;;;;;5056177;28;20480;-79
2022/01/03 02:48:47;;;;;;;3.13;2.22;;;9.10;1.00;;;;;;5054071;28;20774;-79
2022/01/03 02:51:15;;;;;;;3.85;2.50;;;9.10;1.00;;;;;;5066885;28;20222;-78
2022/01/03 02:53:42;;;;;;;2.77;2.30;;;9.10;1.00;;;;;;5081458;28;20278;-77
2022/01/03 02:56:13;;;;;;;3.47;2.20;;;9.10;1.00;;;;;;5078819;28;21203;-77
2022/01/03 02:58:39;;;;;;;3.92;1.80;;;9.00;1.00;;;;;;5077056;28;20250;-79
2022/01/03 03:01:06;;;;;;;2.53;1.70;;;9.00;1.00;;;;;;5076085;28;20267;-77
2022/01/03 03:03:35;;;;;;;2.40;1.55;;;9.00;1.00;;;;;;5072397;28;20233;-78
2022/01/03 03:06:01;;;;;;;3.10;1.85;;;9.00;1.00;;;;;;5081896;28;20218;-78
2022/01/03 03:08:28;;;;;;;2.33;1.30;;;9.00;1.00;;;;;;5077630;28;20223;-78
2022/01/03 03:10:55;;;;;;;3.70;1.60;;;9.00;1.00;;;;;;5077928;28;20311;-77
2022/01/03 03:13:23;;;;;;;2.20;1.37;;;9.00;1.00;;;;;;5081559;28;20447;-78
2022/01/03 03:15:50;;;;;;;2.20;1.50;;;9.00;1.00;;;;;;5075960;28;20497;-78
2022/01/03 03:18:16;;;;;;;2.17;1.73;;;9.00;1.00;;;;;;5076668;28;20229;-78
2022/01/03 03:20:44;;;;;;;3.97;1.52;;;9.00;1.00;;;;;;5078239;28;21437;-78
2022/01/03 03:23:11;;;;;;;3.50;1.88;;;9.00;1.00;;;;;;5080362;28;20250;-78
2022/01/03 03:25:37;;;;;;;3.78;1.83;;;9.00;1.00;;;;;;5075050;28;20295;-78
2022/01/03 03:28:06;;;;;;;3.50;1.60;;;9.00;1.00;;;;;;5063243;28;20299;-79
2022/01/03 03:30:37;;;;;;;3.03;1.75;;;8.90;1.00;;;;;;5054107;28;21161;-80
2022/01/03 03:33:08;;;;;;;4.40;1.80;;;8.90;1.00;;;;;;5057736;28;20263;-78
2022/01/03 03:35:35;;;;;;;4.30;2.00;;;8.90;1.00;;;;;;5052641;28;24843;-79
2022/01/03 03:38:01;;;;;;;2.47;1.70;;;9.00;1.00;;;;;;5056949;28;20438;-79
2022/01/03 03:40:28;;;;;;;4.53;1.80;;;9.00;1.00;;;;;;5048751;28;21239;-79
2022/01/03 03:42:55;;;;;;;3.40;1.80;;;9.00;1.00;;;;;;5058779;28;20228;-80
2022/01/03 03:45:22;;;;;;;2.60;2.07;;;9.00;1.00;;;;;;5054073;28;20476;-79
2022/01/03 03:47:51;;;;;;;3.05;1.83;;;9.00;1.00;;;;;;5056113;28;20442;-79
2022/01/03 03:50:18;;;;;;;4.60;2.40;;;9.00;1.00;;;;;;5056244;28;20217;-79
2022/01/03 03:52:46;;;;;;;2.30;1.60;;;9.00;1.00;;;;;;5065906;28;20226;-79
2022/01/03 03:55:12;;;;;;;3.90;2.23;;;9.00;1.00;;;;;;5057479;28;21222;-78
2022/01/03 03:57:40;;;;;;;2.45;2.00;;;8.90;1.00;;;;;;5061899;28;20568;-77
2022/01/03 04:00:09;;;;;;;2.97;1.80;;;8.90;1.00;;;;;;5070787;28;20378;-77
2022/01/03 04:02:35;;;;;;;6.32;2.38;;;8.90;1.00;;;;;;5065558;28;21921;-77
2022/01/03 04:05:04;;;;;;;3.53;2.03;;;8.90;1.00;;;;;;5067580;28;20226;-79
2022/01/03 04:07:31;;;;;;;2.33;1.80;;;8.90;1.00;;;;;;5056883;28;20287;-80
2022/01/03 04:09:58;;;;;;;2.50;1.70;;;8.90;1.00;;;;;;5057652;28;20219;-79
2022/01/03 04:12:25;;;;;;;3.20;1.60;;;8.90;1.00;;;;;;5057626;28;20222;-79
2022/01/03 04:14:52;;;;;;;3.35;2.25;;;8.90;1.00;;;;;;5059371;28;20559;-79
2022/01/03 04:17:18;;;;;;;2.60;1.90;;;8.90;1.00;;;;;;5056708;28;20226;-80
2022/01/03 04:19:45;;;;;;;2.90;1.85;;;8.90;1.00;;;;;;5052488;28;20685;-80
2022/01/03 04:22:13;;;;;;;3.95;2.17;;;8.90;1.00;;;;;;5056794;28;20682;-80
2022/01/03 04:24:39;;;;;;;3.90;1.60;;;8.90;1.00;;;;;;5054860;28;20225;-79
2022/01/03 04:27:06;;;;;;;3.55;2.15;;;8.90;1.00;;;;;;5059655;28;21249;-80
2022/01/03 04:29:33;;;;;;;3.67;1.60;;;8.80;1.00;;;;;;5060314;28;20661;-79
2022/01/03 04:32:00;;;;;;;3.45;2.20;;;8.80;1.00;;;;;;5054422;28;20392;-79
2022/01/03 04:34:27;;;;;;;3.22;2.10;;;8.90;1.00;;;;;;5061236;28;21261;-79
2022/01/03 04:36:54;;;;;;;2.50;1.80;;;8.80;1.00;;;;;;5052084;28;20707;-79
2022/01/03 04:39:23;;;;;;;3.63;1.95;;;8.80;1.00;;;;;;5056520;28;20229;-80
2022/01/03 04:41:50;;;;;;;2.80;1.50;;;8.80;1.00;;;;;;5057122;28;20227;-77
2022/01/03 04:44:17;;;;;;;2.80;1.38;;;8.80;1.00;;;;;;5069702;28;20415;-79
2022/01/03 04:46:44;;;;;;;2.50;1.10;;;8.80;1.00;;;;;;5074858;28;21162;-77
2022/01/03 04:49:11;;;;;;;2.10;1.17;;;8.80;1.00;;;;;;5065056;28;20714;-78
2022/01/03 04:51:40;;;;;;;3.33;1.25;;;8.80;1.00;;;;;;5056914;28;21143;-77
2022/01/03 04:54:07;;;;;;;2.25;0.60;;;8.70;1.00;;;;;;5052909;28;21012;-78
2022/01/03 04:56:35;;;;;;;1.40;0.70;;;8.70;1.00;;;;;;5059951;28;20231;-79
2022/01/03 04:59:03;;;;;;;2.20;0.70;;;8.70;1.00;;;;;;5056329;28;20451;-79
2022/01/03 05:01:30;;;;;;;3.30;0.77;;;8.60;1.00;;;;;;5053409;28;20439;-80
2022/01/03 05:03:56;;;;;;;1.20;0.40;;;8.60;1.00;;;;;;5058049;28;20847;-79
2022/01/03 05:06:23;;;;;;;2.38;0.60;;;8.60;1.00;;;;;;5073482;28;20312;-78
2022/01/03 05:08:50;;;;;;;1.60;0.60;;;8.60;1.00;;;;;;5080470;28;20319;-80
2022/01/03 05:11:16;;;;;;;1.48;0.40;;;8.50;1.00;;;;;;5088255;28;20433;-77
2022/01/03 05:13:44;;;;;;;1.63;0.55;;;8.50;1.00;;;;;;5089084;28;20211;-77
2022/01/03 05:16:11;;;;;;;1.50;0.50;;;8.50;1.00;;;;;;5096574;28;20229;-76
2022/01/03 05:18:38;;;;;;;3.00;0.60;;;8.50;1.00;;;;;;5093760;28;20224;-77
2022/01/03 05:21:04;;;;;;;1.90;0.50;;;8.50;1.00;;;;;;5078874;28;20267;-77
2022/01/03 05:23:31;;;;;;;1.40;0.50;;;8.50;1.00;;;;;;5071635;28;20256;-78
2022/01/03 05:25:58;;;;;;;1.90;0.57;;;8.50;1.00;;;;;;5060830;28;20233;-77
2022/01/03 05:28:45;;;;;;;2.72;0.60;;;8.50;1.00;;;;;;5066747;28;20226;-78
2022/01/03 05:31:12;;;;;;;1.50;0.45;;;8.50;1.00;;;;;;5059711;28;22478;-78
2022/01/03 05:33:39;;;;;;;1.65;0.70;;;8.50;1.00;;;;;;5060050;28;20222;-79
2022/01/03 05:36:07;;;;;;;1.83;0.93;;;8.40;1.00;;;;;;5058332;28;20339;-79
2022/01/03 05:38:36;;;;;;;1.30;0.60;;;8.40;1.00;;;;;;5056535;28;20308;-79
2022/01/03 05:41:03;;;;;;;1.48;0.65;;;8.40;1.00;;;;;;5062659;28;20275;-79
2022/01/03 05:43:29;;;;;;;2.35;0.70;;;8.40;1.00;;;;;;5056694;28;20240;-79
2022/01/03 05:45:58;;;;;;;1.88;0.90;;;8.40;1.00;;;;;;5053883;28;20222;-78
2022/01/03 05:48:24;;;;;;;2.35;1.20;;;8.30;1.00;;;;;;5057177;28;20237;-78
2022/01/03 05:50:51;;;;;;;1.52;0.60;;;8.30;1.00;;;;;;5056782;28;20228;-80
2022/01/03 05:53:18;;;;;;;1.95;0.93;;;8.40;1.00;;;;;;5066458;28;21436;-80
2022/01/03 05:55:46;;;;;;;2.05;0.98;;;8.30;1.00;;;;;;5055515;28;20217;-78
2022/01/03 05:58:13;;;;;;;1.65;0.70;;;8.30;1.00;;;;;;5058513;28;20284;-79
2022/01/03 06:00:40;;;;;;;2.15;1.08;;;8.30;1.00;;;;;;5054523;28;20235;-79
2022/01/03 06:03:10;;;;;;;1.75;1.02;;;8.30;1.00;;;;;;5052626;28;20213;-79
2022/01/03 06:05:53;;;;;;;2.42;1.10;;;8.30;1.00;;;;;;5054378;28;20221;-80
2022/01/03 06:08:20;;;;;;;2.90;1.00;;;8.30;1.00;;;;;;5058466;28;20227;-82
2022/01/03 06:10:46;;;;;;;2.92;1.45;;;8.30;1.00;;;;;;5060518;28;20304;-80
2022/01/03 06:13:14;;;;;;;3.28;1.38;;;8.30;1.00;;;;;;5058696;28;20221;-81
2022/01/03 06:15:42;;;;;;;2.63;1.27;;;8.30;1.00;;;;;;5060417;28;20280;-82
2022/01/03 06:18:14;;;;;;;3.08;1.20;;;8.30;1.00;;;;;;5058321;28;20322;-83
2022/01/03 06:20:42;;;;;;;2.38;1.00;;;8.30;1.00;;;;;;5063907;28;21977;-83
2022/01/03 06:23:10;;;;;;;5.10;1.20;;;8.30;1.00;;;;;;5054278;28;20323;-84
2022/01/03 06:25:37;;;;;;;3.70;1.70;;;8.30;1.00;;;;;;5061387;28;20227;-78
2022/01/03 06:28:07;;;;;;;5.55;1.77;;;8.30;1.00;;;;;;5058656;28;20226;-83
2022/01/03 06:30:34;;;;;;;2.72;1.75;;;8.30;1.00;;;;;;5063208;28;20227;-80
2022/01/03 06:33:00;;;;;;;7.00;2.05;;;8.30;1.00;;;;;;5059377;28;20217;-80
2022/01/03 06:35:29;;;;;;;3.78;1.42;;;8.40;1.00;;;;;;5063605;28;20254;-77
2022/01/03 06:37:56;;;;;;;5.50;1.40;;;8.40;1.00;;;;;;5061534;28;20280;-79
2022/01/03 06:40:23;;;;;;;3.75;1.42;;;8.40;1.00;;;;;;5062306;28;20265;-81
2022/01/03 06:42:49;;;;;;;5.53;1.63;;;8.40;1.00;;;;;;5068066;28;20242;-80
2022/01/03 06:45:17;;;;;;;4.78;1.40;;;8.40;1.00;;;;;;5067034;28;20268;-79
2022/01/03 06:47:44;;;;;;;5.90;1.80;;;8.40;1.00;;;;;;5066808;28;20322;-80
2022/01/03 06:50:11;;;;;;;3.43;1.50;;;8.50;1.00;;;;;;5059682;28;20233;-82
2022/01/03 06:52:39;;;;;;;5.22;2.17;;;8.50;1.00;;;;;;5064021;28;20467;-80
2022/01/03 06:55:08;;;;;;;2.53;1.63;;;8.50;1.00;;;;;;5075511;28;20220;-80
2022/01/03 06:57:35;;;;;;;6.30;2.10;;;8.50;1.00;;;;;;5080811;28;20228;-79
2022/01/03 07:00:01;;;;;;;7.47;2.47;;;8.50;1.00;;;;;;5083810;28;20285;-80
2022/01/03 07:02:28;;;;;;;6.25;1.67;;;8.50;1.00;;;;;;5081372;28;20445;-80
2022/01/03 07:04:55;;;;;;;4.50;1.73;;;8.60;1.00;;;;;;5065796;28;20247;-80
2022/01/03 07:07:22;;;;;;;5.30;1.95;;;8.60;1.00;;;;;;5057933;28;21536;-79
2022/01/03 07:09:50;;;;;;;4.27;2.37;;;8.60;1.00;;;;;;5058526;28;20279;-80
2022/01/03 07:12:17;;;;;;;6.00;2.40;;;8.60;1.00;;;;;;5060720;28;20497;-81
2022/01/03 07:20:12;;;;;;;6.82;2.42;;;8.70;1.00;;;;;;5063359;28;20449;-80
2022/01/03 07:22:40;;;;;;;5.50;2.10;;;8.70;1.00;;;;;;5064623;28;20216;-80
2022/01/03 07:25:09;;;;;;;5.68;3.08;;;8.70;1.00;;;;;;5071825;28;20229;-79
2022/01/03 07:27:36;;;;;;;5.72;2.17;;;8.70;1.00;;;;;;5081482;28;20259;-80
2022/01/03 07:30:05;;;;;;;7.17;3.00;;;8.70;1.00;;;;;;5072292;28;20266;-80
2022/01/03 07:32:31;;;;;;;6.47;3.35;;;8.70;1.00;;;;;;5077886;28;21521;-80
2022/01/03 07:34:58;;;;;;;7.75;3.13;;;8.70;1.00;;;;;;5083844;28;20229;-79
2022/01/03 07:37:25;;;;;;;7.88;3.00;;;8.70;1.00;;;;;;5074194;28;20433;-80
2022/01/03 07:39:52;;;;;;;5.00;2.90;;;8.70;1.00;;;;;;5069596;28;20935;-80
2022/01/03 07:42:20;;;;;;;6.00;3.83;;;8.70;1.00;;;;;;5062982;28;20498;-80
2022/01/03 07:44:46;;;;;;;4.50;2.20;;;8.70;1.00;;;;;;5063669;28;20224;-81
2022/01/03 07:47:13;;;;;;;6.93;3.95;;;8.70;1.00;;;;;;5060125;28;20289;-81
2022/01/03 07:49:40;;;;;;;8.73;3.33;;;8.70;1.00;;;;;;5058495;28;20323;-80
2022/01/03 07:52:07;;;;;;;6.60;2.95;;;8.70;1.00;;;;;;5063260;28;20446;-79
2022/01/03 07:54:34;;;;;;;5.88;3.38;;;8.70;1.00;;;;;;5065858;28;20317;-80
2022/01/03 07:57:00;;;;;;;8.30;3.33;;;8.70;1.00;;;;;;5062562;28;20229;-79
2022/01/03 07:59:28;;;;;;;10.45;4.82;;;8.70;1.00;;;;;;5064627;28;20211;-78
2022/01/03 08:01:55;;;;;;;5.18;2.70;;;8.70;1.00;;;;;;5065616;28;20262;-78
2022/01/03 08:04:22;;;;;;;9.70;3.00;;;8.70;1.00;;;;;;5072064;28;20238;-77
2022/01/03 08:06:48;;;;;;;6.07;2.45;;;8.70;1.00;;;;;;5087651;28;20214;-79
2022/01/03 08:09:15;;;;;;;5.25;2.33;;;8.70;1.00;;;;;;5090735;28;20228;-77
2022/01/03 08:11:42;;;;;;;7.18;2.65;;;8.70;1.00;;;;;;5096938;28;20309;-77
2022/01/03 08:14:09;;;;;;;7.47;2.63;;;8.80;1.00;;;;;;5090015;28;20286;-78
2022/01/03 08:16:37;;;;;;;5.57;3.00;;;8.80;1.00;;;;;;5087900;28;20289;-80
2022/01/03 08:19:03;;;;;;;10.87;3.00;;;8.80;1.00;;;;;;5071905;28;20535;-79
2022/01/03 08:21:30;;;;;;;4.47;2.23;;;8.90;1.00;;;;;;5066065;28;20573;-80
2022/01/03 08:23:57;;;;;;;9.73;3.80;;;8.90;1.00;;;;;;5065651;28;20501;-80
2022/01/03 08:26:24;;;;;;;7.40;3.05;;;8.90;1.00;;;;;;5064743;28;21035;-80
2022/01/03 08:28:51;;;;;;;5.40;2.90;;;8.90;1.00;;;;;;5067408;28;20216;-79
2022/01/03 08:31:18;;;;;;;7.77;3.40;;;9.00;1.00;;;;;;5059741;28;20457;-81
2022/01/03 08:33:46;;;;;;;6.47;3.58;;;9.10;1.00;;;;;;5063369;28;20460;-80
2022/01/03 08:36:12;;;;;;;5.87;3.33;;;9.00;1.00;;;;;;5062125;28;20233;-80
2022/01/03 08:38:39;;;;;;;8.00;2.90;;;9.00;1.00;;;;;;5065573;28;20463;-79
2022/01/03 08:41:06;;;;;;;11.93;3.22;;;9.00;1.00;;;;;;5073872;28;20379;-80
2022/01/03 08:43:33;;;;;;;8.40;3.58;;;9.00;1.00;;;;;;5063190;28;20236;-79
2022/01/03 08:46:00;;;;;;;6.25;3.50;;;9.00;1.00;;;;;;5061690;28;20219;-82
2022/01/03 08:48:28;;;;;;;6.80;3.17;;;9.00;1.00;;;;;;5060092;28;20228;-83
2022/01/03 08:51:32;;;;;;;9.10;3.20;;;9.00;1.00;;;;;;5062061;28;20469;-83
2022/01/03 08:54:05;;;;;;;10.93;3.50;;;9.10;1.00;;;;;;5066006;28;20451;-82
2022/01/03 08:56:32;;;;;;;7.87;3.10;;;9.20;1.00;;;;;;5060738;28;21622;-81
2022/01/03 08:58:59;;;;;;;10.87;2.90;;;9.30;1.00;;;;;;5064997;28;20540;-81
2022/01/03 09:01:26;;;;;;;7.50;3.60;;;9.30;1.00;;;;;;5052402;28;20450;-82
2022/01/03 09:03:53;;;;;;;6.70;2.77;;;9.40;1.00;;;;;;5066917;28;21005;-82
2022/01/03 09:06:20;;;;;;;8.70;3.37;;;9.40;1.00;;;;;;5061112;28;20516;-82
2022/01/03 09:08:49;;;;;;;7.03;2.83;;;9.60;1.00;;;;;;5059540;28;20507;-81
2022/01/03 09:11:17;;;;;;;8.03;2.90;;;9.70;1.00;;;;;;5057804;28;20469;-81
2022/01/03 09:13:44;;;;;;;8.50;3.23;;;9.90;1.00;;;;;;5064686;28;20460;-82
2022/01/03 09:16:11;;;;;;;9.70;3.67;;;10.00;1.00;;;;;;5059694;28;20472;-80
2022/01/03 09:18:40;;;;;;;8.13;3.00;;;10.10;1.00;;;;;;5068001;28;20481;-80
2022/01/03 09:21:07;;;;;;;8.67;4.00;;;10.20;1.00;;;;;;5070551;28;21225;-81
2022/01/03 09:23:38;;;;;;;5.15;3.10;;;10.30;1.00;;;;;;5065408;28;20467;-80
2022/01/03 09:28:52;;;;;;;5.27;3.33;;;10.30;1.00;;;;;;5063306;28;20419;-82
2022/01/03 09:31:22;;;;;;;11.50;2.90;;;10.30;1.00;;;;;;5059700;28;20439;-82
2022/01/03 09:33:49;;;;;;;10.53;3.50;;;10.30;1.00;;;;;;5060396;28;20424;-80
2022/01/03 09:36:16;;;;;;;9.20;3.53;;;10.20;1.00;;;;;;5058907;28;20470;-81
2022/01/03 09:38:43;;;;;;;7.07;2.80;;;10.10;1.00;;;;;;5066197;28;20480;-81
2022/01/03 09:41:12;;;;;;;7.63;3.50;;;10.20;1.00;;;;;;5064370;28;21677;-81
2022/01/03 09:43:46;;;;;;;5.90;2.53;;;10.30;1.00;;;;;;5065313;28;20465;-81
2022/01/03 09:46:18;;;;;;;8.43;2.80;;;10.30;1.00;;;;;;5057072;28;20448;-81
2022/01/03 09:48:52;;;;;;;6.70;2.90;;;10.30;1.00;;;;;;5067829;28;20456;-79
2022/01/03 09:51:20;;;;;;;10.07;3.10;;;10.30;1.00;;;;;;5078651;28;20539;-80
2022/01/03 09:53:48;;;;;;;8.57;3.30;;;10.30;1.00;;;;;;5083764;28;20404;-82
2022/01/03 09:56:17;;;;;;;9.90;4.27;;;10.50;1.00;;;;;;5061785;28;20491;-82
2022/01/03 09:58:57;;;;;;;;;;;;;;;;;;;;;
2022/01/03 10:13:02;;;;;;;9.43;3.53;;;10.80;1.00;;;;;;4862119;29;20445;-82
2022/01/03 10:15:29;;;;;;;6.90;2.73;;;10.70;1.00;;;;;;4901610;28;20474;-80
2022/01/03 10:17:56;;;;;;;11.40;3.77;;;10.70;1.00;;;;;;4991151;28;20463;-82
2022/01/03 10:20:30;;;;;;;5.40;2.73;;;10.60;1.00;;;;;;5058227;28;20450;-84
2022/01/03 10:23:08;;;;;;;5.37;2.80;;;10.50;1.00;;;;;;5078073;28;20453;-83
2022/01/03 10:25:36;;;;;;;9.10;4.40;;;10.40;1.00;;;;;;5080016;28;20502;-83
2022/01/03 10:28:05;;;;;;;7.22;3.45;;;10.40;1.00;;;;;;5072424;28;20435;-80
2022/01/03 10:30:35;;;;;;;8.80;2.93;;;10.50;1.00;;;;;;5058422;28;20228;-81
2022/01/03 10:33:04;;;;;;;8.27;3.53;;;10.70;1.00;;;;;;5063318;28;20412;-81
2022/01/03 10:35:40;;;;;;;7.43;3.40;;;10.90;1.00;;;;;;5063995;28;20534;-80
2022/01/03 10:38:08;;;;;;;11.73;4.50;;;11.00;1.00;;;;;;5063429;28;20436;-82
2022/01/03 10:40:36;;;;;;;10.27;3.43;;;11.10;1.00;;;;;;5068307;28;20575;-80
2022/01/03 10:43:17;;;;;;;7.53;3.80;;;11.40;1.00;;;;;;5058773;28;21035;-83
2022/01/03 10:45:44;;;;;;;9.43;3.63;;;11.70;1.00;;;;;;5061162;28;20450;-81
2022/01/03 10:48:32;;;;;;;9.90;4.00;;;12.10;1.00;;;;;;5068505;28;20493;-80
2022/01/03 10:51:00;;;;;;;5.63;3.20;;;12.70;1.00;;;;;;5063973;28;20523;-81
2022/01/03 10:53:35;;;;;;;6.50;3.53;;;13.00;1.00;;;;;;5059868;28;20510;-83
2022/01/03 10:56:35;;;;;;;7.37;3.70;;;12.70;1.00;;;;;;5068495;28;20466;-79
2022/01/03 10:59:20;;;;;;;10.23;4.43;;;12.60;1.00;;;;;;5083960;28;20443;-81
2022/01/03 11:01:53;;;;;;;6.63;4.03;;;12.50;1.00;;;;;;5088609;27;20641;-83
2022/01/03 11:04:33;;;;;;;10.40;4.23;;;12.30;1.00;;;;;;5077143;28;20448;-84
2022/01/03 11:10:43;;;;;;;8.60;4.30;;;12.00;1.00;;;;;;5090505;28;20474;-84
2022/01/03 11:13:07;;;;;;;10.10;4.47;;;11.80;1.00;;;;;;5082278;28;20569;-81
2022/01/03 11:15:36;;;;;;;10.40;5.30;;;11.70;1.00;;;;;;5077094;28;20427;-80
2022/01/03 11:18:10;;;;;;;8.60;4.53;;;11.80;1.00;;;;;;5062030;28;20450;-79
2022/01/03 11:20:37;;;;;;;13.30;5.07;;;11.80;1.00;;;;;;5073637;28;20506;-79
2022/01/03 11:23:04;;;;;;;8.10;4.57;;;11.90;1.00;;;;;;5078069;28;20472;-80
2022/01/03 11:25:32;;;;;;;10.20;5.10;;;11.70;1.00;;;;;;5079014;28;20542;-80
2022/01/03 11:28:00;;;;;;;6.70;4.20;;;11.40;1.00;;;;;;5078271;28;20479;-81
2022/01/03 11:30:27;;;;;;;9.60;5.00;;;11.30;1.00;;;;;;5077678;28;20412;-79
2022/01/03 11:32:56;;;;;;;10.50;4.50;;;11.20;1.00;;;;;;5076679;28;20545;-78
2022/01/03 11:35:23;;;;;;;8.20;4.03;;;11.20;1.00;;;;;;5078354;28;20407;-81
2022/01/03 11:37:51;;;;;;;8.60;4.67;;;11.10;1.00;;;;;;5078453;28;20444;-79
2022/01/03 11:40:18;;;;;;;10.97;5.57;;;10.90;1.00;;;;;;5080084;28;20485;-81
2022/01/03 11:42:46;;;;;;;9.97;5.17;;;11.00;1.00;;;;;;5076514;28;20424;-80
2022/01/03 11:45:14;;;;;;;12.83;6.03;;;11.10;1.00;;;;;;5078191;28;20424;-80
2022/01/03 11:47:40;;;;;;;8.90;4.50;;;11.20;1.00;;;;;;5079293;28;20494;-80
2022/01/03 11:50:10;;;;;;;13.73;5.03;;;11.30;1.00;;;;;;5075242;28;20444;-80
2022/01/03 11:52:41;;;;;;;11.87;4.93;;;11.40;1.00;;;;;;5064425;28;20443;-82
2022/01/03 11:55:09;;;;;;;5.40;4.63;;;11.50;1.00;;;;;;5056806;28;20556;-80
2022/01/03 11:58:24;;;;;;;8.53;4.47;;;11.60;1.00;;;;;;5061551;28;20464;-81
2022/01/03 12:03:52;;;;;;;11.27;4.50;;;12.00;1.00;;;;;;5060663;28;20506;-79
2022/01/03 12:06:33;;;;;;;11.67;4.80;;;12.90;1.00;;;;;;5061543;28;20457;-80
2022/01/03 12:09:05;;;;;;;6.27;4.37;;;13.10;1.00;;;;;;5059441;28;20466;-80
2022/01/03 12:11:32;;;;;;;9.00;4.43;;;12.70;1.00;;;;;;5064970;28;20545;-83
2022/01/03 12:14:09;;;;;;;19.33;5.57;;;12.40;1.00;;;;;;5061141;28;20585;-79
2022/01/03 12:17:03;;;;;;;10.70;4.83;;;12.20;1.00;;;;;;5063431;28;20496;-79
2022/01/03 12:19:33;;;;;;;7.00;4.53;;;11.90;1.00;;;;;;5062945;28;20491;-80
2022/01/03 12:22:17;;;;;;;11.17;5.43;;;11.70;1.00;;;;;;5061313;28;20424;-79
2022/01/03 12:24:49;;;;;;;15.50;6.20;;;11.60;1.00;;;;;;5065682;28;20467;-80
2022/01/03 12:27:41;;;;;;;9.87;4.20;;;11.60;1.00;;;;;;5063540;28;20478;-81
2022/01/03 12:30:17;;;;;;;11.23;5.70;;;11.70;1.00;;;;;;5064439;28;20566;-82
2022/01/03 12:33:05;;;;;;;13.07;5.37;;;11.70;1.00;;;;;;5061440;28;21211;-81
2022/01/03 12:35:31;;;;;;;7.07;4.27;;;11.70;1.00;;;;;;5062180;28;20452;-81
2022/01/03 12:38:31;;;;;;;10.43;4.93;;;11.60;1.00;;;;;;5062811;28;20464;-81
2022/01/03 12:41:02;;;;;;;13.60;5.83;;;11.60;1.00;;;;;;5073479;28;20490;-81
2022/01/03 12:43:45;;;;;;;9.23;4.83;;;11.50;1.00;;;;;;5062332;28;20476;-80
2022/01/03 12:46:20;;;;;;;6.87;5.13;;;11.50;1.00;;;;;;5064499;28;20436;-80
2022/01/03 12:48:47;;;;;;;11.67;4.60;;;11.50;1.00;;;;;;5064296;28;20439;-82
2022/01/03 12:51:17;;;;;;;9.50;4.13;;;11.50;1.00;;;;;;5061839;28;20455;-79
2022/01/03 12:53:53;;;;;;;8.30;3.67;;;11.70;1.00;;;;;;5059477;28;20466;-79
2022/01/03 12:56:30;;;;;;;8.43;4.57;;;11.80;1.00;;;;;;5064185;28;20523;-81
2022/01/03 12:58:58;;;;;;;10.37;4.67;;;11.90;1.00;;;;;;5064452;28;20418;-80
2022/01/03 13:01:30;;;;;;;9.30;4.93;;;12.00;1.00;;;;;;5059271;28;20548;-82
2022/01/03 13:03:59;;;;;;;9.90;4.23;;;12.10;1.00;;;;;;5066535;28;20478;-82
2022/01/03 13:06:31;;;;;;;7.37;4.03;;;12.70;1.00;;;;;;5062821;28;20479;-81
2022/01/03 13:09:09;;;;;;;10.20;4.43;;;13.30;1.00;;;;;;5074455;28;21281;-82
2022/01/03 13:11:38;;;;;;;7.10;4.17;;;13.00;1.00;;;;;;5092952;28;20428;-81
2022/01/03 13:14:08;;;;;;;10.90;4.77;;;12.60;1.00;;;;;;5065095;28;20448;-81
2022/01/03 13:16:38;;;;;;;5.97;3.93;;;12.20;1.00;;;;;;5061621;28;20564;-81
2022/01/03 13:19:07;;;;;;;8.00;3.90;;;12.10;1.00;;;;;;5065717;28;20534;-81
2022/01/03 13:21:36;;;;;;;10.90;3.80;;;12.00;1.00;;;;;;5060852;28;20436;-80
2022/01/03 13:24:12;;;;;;;13.43;4.23;;;11.90;1.00;;;;;;5063052;28;20443;-81
2022/01/03 13:26:57;;;;;;;8.30;4.50;;;11.90;1.00;;;;;;5062250;28;20499;-80
2022/01/03 13:29:25;;;;;;;10.67;4.17;;;11.80;1.00;;;;;;5064916;28;20476;-81
2022/01/03 13:31:53;;;;;;;7.00;4.13;;;11.70;1.00;;;;;;5075120;28;20432;-79
2022/01/03 13:34:22;;;;;;;9.60;4.03;;;11.60;1.00;;;;;;5079680;28;20499;-79
2022/01/03 13:36:50;;;;;;;7.83;4.10;;;11.60;1.00;;;;;;5077803;28;20502;-81
2022/01/03 13:39:21;;;;;;;8.13;5.50;;;11.70;1.00;;;;;;5061539;28;20421;-80
2022/01/03 13:41:51;;;;;;;7.00;3.77;;;11.80;1.00;;;;;;5062238;28;20459;-81
2022/01/03 13:50:17;;;;;;;7.43;3.20;;;12.00;1.00;;;;;;5016617;28;21340;-81